createdAt,value
2019-01-12T00:01:47.410Z,10.30
2019-01-12T00:04:16.681Z,9.90
2019-01-12T00:06:45.940Z,9.20
2019-01-12T00:09:15.227Z,9.30
2019-01-12T00:11:44.494Z,9.13
2019-01-12T00:14:13.861Z,9.00
2019-01-12T00:16:43.229Z,9.40
2019-01-12T00:19:12.512Z,8.43
2019-01-12T00:21:41.821Z,8.00
2019-01-12T00:24:11.183Z,7.20
2019-01-12T00:26:40.429Z,7.10
2019-01-12T00:29:09.736Z,7.77
2019-01-12T00:31:39.937Z,7.63
2019-01-12T00:34:09.191Z,7.60
2019-01-12T00:36:38.552Z,6.80
2019-01-12T00:39:08.852Z,5.70
2019-01-12T00:41:38.133Z,6.90
2019-01-12T00:44:07.389Z,6.17
2019-01-12T00:46:36.657Z,6.33
2019-01-12T00:49:05.933Z,6.40
2019-01-12T00:51:35.192Z,6.57
2019-01-12T00:54:04.676Z,5.90
2019-01-12T00:56:33.965Z,5.83
2019-01-12T00:59:03.275Z,6.50
2019-01-12T01:01:32.533Z,5.63
2019-01-12T01:04:01.808Z,6.10
2019-01-12T01:06:31.059Z,6.50
2019-01-12T01:09:00.326Z,6.07
2019-01-12T01:11:29.609Z,7.27
2019-01-12T01:13:58.906Z,7.37
2019-01-12T01:16:28.268Z,5.97
2019-01-12T01:18:57.519Z,6.17
2019-01-12T01:21:26.798Z,6.60
2019-01-12T01:23:56.063Z,6.53
2019-01-12T01:26:25.333Z,5.60
2019-01-12T01:28:54.593Z,6.10
2019-01-12T01:31:23.881Z,6.30
2019-01-12T01:33:53.128Z,6.30
2019-01-12T01:36:22.438Z,6.73
2019-01-12T01:38:51.693Z,5.80
2019-01-12T01:41:20.989Z,7.07
2019-01-12T01:43:50.262Z,7.33
2019-01-12T01:46:19.517Z,7.40
2019-01-12T01:48:48.803Z,7.07
2019-01-12T01:51:18.066Z,7.80
2019-01-12T01:53:47.343Z,8.30
2019-01-12T01:56:16.595Z,8.23
2019-01-12T01:58:45.876Z,8.83
2019-01-12T02:01:15.144Z,9.67
2019-01-12T02:03:44.456Z,10.90
2019-01-12T02:06:13.720Z,10.40
2019-01-12T02:08:42.984Z,9.33
2019-01-12T02:11:12.280Z,8.83
2019-01-12T02:13:41.559Z,9.43
2019-01-12T02:16:10.936Z,11.00
2019-01-12T02:18:40.214Z,9.53
2019-01-12T02:21:09.516Z,10.43
2019-01-12T02:23:38.781Z,11.47
2019-01-12T02:26:08.049Z,11.20
2019-01-12T02:28:37.311Z,11.60
2019-01-12T02:31:06.605Z,13.20
2019-01-12T02:33:35.865Z,15.33
2019-01-12T02:36:05.152Z,13.40
2019-01-12T02:38:34.419Z,15.37
2019-01-12T02:41:03.701Z,16.00
2019-01-12T02:43:32.960Z,16.03
2019-01-12T02:46:02.237Z,14.30
2019-01-12T02:48:31.520Z,14.37
2019-01-12T02:51:00.766Z,13.23
2019-01-12T02:53:30.052Z,14.60
2019-01-12T02:55:59.308Z,13.70
2019-01-12T02:58:28.666Z,13.57
2019-01-12T03:00:57.935Z,16.37
2019-01-12T03:03:27.217Z,16.10
2019-01-12T03:05:56.471Z,17.40
2019-01-12T03:08:25.778Z,18.37
2019-01-12T03:10:55.099Z,18.77
2019-01-12T03:13:24.399Z,18.33
2019-01-12T03:15:53.644Z,16.30
2019-01-12T03:18:22.920Z,18.83
2019-01-12T03:20:52.365Z,16.47
2019-01-12T03:23:21.628Z,17.73
2019-01-12T03:25:50.920Z,17.60
2019-01-12T03:28:20.214Z,17.07
2019-01-12T03:30:49.563Z,17.30
2019-01-12T03:33:18.898Z,16.27
2019-01-12T03:35:48.180Z,17.77
2019-01-12T03:38:17.438Z,16.00
2019-01-12T03:40:46.731Z,20.50
2019-01-12T03:43:16.042Z,15.80
2019-01-12T03:45:45.316Z,15.87
2019-01-12T03:48:14.567Z,16.60
2019-01-12T03:50:43.847Z,16.53
2019-01-12T03:53:13.107Z,17.03
2019-01-12T03:55:42.415Z,16.50
2019-01-12T03:58:11.674Z,17.97
2019-01-12T04:00:40.959Z,18.17
2019-01-12T04:03:10.229Z,17.43
2019-01-12T04:05:39.489Z,19.27
2019-01-12T04:08:08.774Z,19.33
2019-01-12T04:10:38.050Z,15.60
2019-01-12T04:13:07.358Z,18.40
2019-01-12T04:15:36.683Z,17.27
2019-01-12T04:18:05.959Z,17.03
2019-01-12T04:20:35.233Z,16.33
2019-01-12T04:23:04.523Z,16.00
2019-01-12T04:25:34.481Z,14.87
2019-01-12T04:28:03.895Z,17.67
2019-01-12T04:30:33.154Z,16.43
2019-01-12T04:33:02.429Z,16.57
2019-01-12T04:35:31.693Z,16.57
2019-01-12T04:38:00.974Z,16.57
2019-01-12T04:40:30.274Z,15.70
2019-01-12T04:42:59.524Z,15.13
2019-01-12T04:45:28.791Z,15.63
2019-01-12T04:47:58.054Z,15.57
2019-01-12T04:50:27.339Z,15.37
2019-01-12T04:52:56.596Z,14.67
2019-01-12T04:55:25.875Z,13.80
2019-01-12T04:57:55.141Z,12.67
2019-01-12T05:00:24.413Z,13.50
2019-01-12T05:02:53.691Z,12.70
2019-01-12T05:05:22.941Z,11.90
2019-01-12T05:07:52.252Z,13.03
2019-01-12T05:10:21.509Z,11.17
2019-01-12T05:12:50.788Z,13.20
2019-01-12T05:15:20.160Z,12.17
2019-01-12T05:17:49.441Z,11.60
2019-01-12T05:20:20.414Z,11.90
2019-01-12T05:22:49.925Z,12.10
2019-01-12T05:25:19.522Z,11.97
2019-01-12T05:27:48.848Z,12.97
2019-01-12T05:30:22.189Z,12.67
2019-01-12T05:32:51.820Z,11.60
2019-01-12T05:35:21.079Z,11.30
2019-01-12T05:37:50.340Z,13.50
2019-01-12T05:40:19.613Z,12.13
2019-01-12T05:42:48.871Z,12.73
2019-01-12T05:45:18.228Z,13.43
2019-01-12T05:47:47.492Z,11.37
2019-01-12T05:50:16.763Z,13.57
2019-01-12T05:52:46.012Z,12.33
2019-01-12T05:55:15.293Z,11.83
2019-01-12T05:57:44.551Z,12.50
2019-01-12T06:00:19.260Z,10.90
2019-01-12T06:02:48.613Z,12.30
2019-01-12T06:05:17.872Z,11.10
2019-01-12T06:07:47.239Z,12.40
2019-01-12T06:10:16.501Z,10.90
2019-01-12T06:12:45.784Z,11.90
2019-01-12T06:15:15.753Z,10.70
2019-01-12T06:17:45.036Z,10.20
2019-01-12T06:20:15.357Z,9.30
2019-01-12T06:22:44.727Z,8.60
2019-01-12T06:25:14.001Z,8.00
2019-01-12T06:27:43.339Z,9.03
2019-01-12T06:30:20.341Z,7.33
2019-01-12T06:32:49.638Z,7.23
2019-01-12T06:35:18.888Z,8.03
2019-01-12T06:37:48.256Z,7.13
2019-01-12T06:40:18.852Z,6.73
2019-01-12T06:42:48.584Z,7.80
2019-01-12T06:45:18.689Z,8.00
2019-01-12T06:47:47.976Z,8.10
2019-01-12T06:50:20.410Z,8.00
2019-01-12T06:52:49.700Z,8.07
2019-01-12T06:55:18.956Z,8.50
2019-01-12T06:57:48.243Z,8.80
2019-01-12T07:00:19.490Z,8.10
2019-01-12T07:02:49.070Z,8.10
2019-01-12T07:05:18.428Z,8.00
2019-01-12T07:07:47.685Z,8.43
2019-01-12T07:10:17.012Z,8.70
2019-01-12T07:12:46.264Z,8.07
2019-01-12T07:15:15.652Z,9.47
2019-01-12T07:17:45.072Z,9.80
2019-01-12T07:20:15.934Z,9.43
2019-01-12T07:22:46.424Z,8.93
2019-01-12T07:25:16.152Z,9.13
2019-01-12T07:27:45.500Z,8.70
2019-01-12T07:30:21.520Z,9.73
2019-01-12T07:32:53.692Z,8.83
2019-01-12T07:35:23.068Z,10.20
2019-01-12T07:37:52.501Z,10.70
2019-01-12T07:40:21.795Z,11.00
2019-01-12T07:42:51.536Z,12.93
2019-01-12T07:45:21.439Z,11.17
2019-01-12T07:47:50.744Z,13.50
2019-01-12T07:50:20.101Z,13.17
2019-01-12T07:52:49.425Z,13.73
2019-01-12T07:55:18.966Z,13.93
2019-01-12T07:57:48.385Z,14.13
2019-01-12T08:00:29.243Z,14.97
2019-01-12T08:02:58.599Z,16.70
2019-01-12T08:05:27.908Z,18.27
2019-01-12T08:07:57.260Z,16.73
2019-01-12T08:10:27.103Z,18.40
2019-01-12T08:12:56.847Z,18.37
2019-01-12T08:15:26.128Z,17.90
2019-01-12T08:17:55.404Z,18.63
2019-01-12T08:20:24.761Z,20.90
2019-01-12T08:22:54.402Z,18.53
2019-01-12T08:25:23.672Z,19.27
2019-01-12T08:27:53.005Z,19.13
2019-01-12T08:30:22.370Z,19.70
2019-01-12T08:32:51.656Z,18.27
2019-01-12T08:35:20.920Z,16.77
2019-01-12T08:37:50.181Z,17.17
2019-01-12T08:40:19.447Z,17.57
2019-01-12T08:42:48.699Z,19.20
2019-01-12T08:45:17.993Z,18.13
2019-01-12T08:47:47.456Z,20.10
2019-01-12T08:50:18.863Z,20.10
2019-01-12T08:52:48.748Z,19.40
2019-01-12T08:55:18.427Z,19.53
2019-01-12T08:57:47.786Z,17.60
2019-01-12T09:00:21.610Z,16.70
2019-01-12T09:02:50.962Z,17.50
2019-01-12T09:05:20.420Z,17.70
2019-01-12T09:07:49.758Z,16.80
2019-01-12T09:10:22.755Z,17.10
2019-01-12T09:12:52.201Z,16.93
2019-01-12T09:15:22.488Z,16.57
2019-01-12T09:17:51.768Z,16.97
2019-01-12T09:20:21.118Z,16.80
2019-01-12T09:22:50.637Z,17.90
2019-01-12T09:25:19.932Z,15.47
2019-01-12T09:27:49.182Z,16.77
2019-01-12T09:30:22.887Z,16.67
2019-01-12T09:32:52.613Z,15.33
2019-01-12T09:35:21.903Z,16.93
2019-01-12T09:37:51.166Z,14.60
2019-01-12T09:40:21.770Z,14.53
2019-01-12T09:42:51.684Z,13.90
2019-01-12T09:45:21.365Z,15.03
2019-01-12T09:47:50.812Z,14.00
2019-01-12T09:50:21.257Z,15.87
2019-01-12T09:52:50.645Z,16.27
2019-01-12T09:55:19.955Z,14.90
2019-01-12T09:57:49.890Z,13.93
2019-01-12T10:00:21.318Z,16.30
2019-01-12T10:02:50.615Z,14.60
2019-01-12T10:05:19.882Z,13.90
2019-01-12T10:07:49.152Z,16.27
2019-01-12T10:10:19.914Z,14.83
2019-01-12T10:12:49.798Z,13.50
2019-01-12T10:15:19.303Z,14.23
2019-01-12T10:17:48.776Z,15.27
2019-01-12T10:20:19.236Z,15.13
2019-01-12T10:22:48.587Z,15.80
2019-01-12T10:25:18.492Z,14.93
2019-01-12T10:27:47.756Z,15.13
2019-01-12T10:30:22.108Z,13.73
2019-01-12T10:32:51.380Z,16.07
2019-01-12T10:35:20.882Z,15.70
2019-01-12T10:37:50.199Z,15.60
2019-01-12T10:40:19.829Z,14.27
2019-01-12T10:42:49.745Z,14.40
2019-01-12T10:45:20.541Z,14.27
2019-01-12T10:47:49.798Z,14.87
2019-01-12T10:50:21.954Z,14.40
2019-01-12T10:52:51.211Z,17.33
2019-01-12T10:55:20.487Z,16.97
2019-01-12T10:57:49.769Z,16.20
2019-01-12T11:00:21.710Z,17.20
2019-01-12T11:02:51.105Z,15.70
2019-01-12T11:05:20.591Z,16.30
2019-01-12T11:07:49.892Z,17.20
2019-01-12T11:10:19.384Z,16.10
2019-01-12T11:12:48.667Z,16.97
2019-01-12T11:15:19.327Z,16.77
2019-01-12T11:17:48.866Z,15.87
2019-01-12T11:20:18.520Z,15.57
2019-01-12T11:22:47.917Z,14.80
2019-01-12T11:25:17.329Z,15.57
2019-01-12T11:27:46.627Z,15.83
2019-01-12T11:30:17.989Z,15.83
2019-01-12T11:32:48.506Z,16.17
2019-01-12T11:35:17.820Z,15.77
2019-01-12T11:37:47.097Z,15.80
2019-01-12T11:40:20.493Z,14.60
2019-01-12T11:42:51.337Z,16.60
2019-01-12T11:45:20.813Z,15.80
2019-01-12T11:47:50.288Z,15.90
2019-01-12T11:50:19.555Z,15.20
2019-01-12T11:52:48.942Z,13.97
2019-01-12T11:55:19.792Z,14.73
2019-01-12T11:57:49.061Z,13.33
2019-01-12T12:00:29.234Z,15.20
2019-01-12T12:02:58.947Z,13.23
2019-01-12T12:05:28.208Z,12.47
2019-01-12T12:07:57.996Z,12.40
2019-01-12T12:10:27.261Z,12.80
2019-01-12T12:12:56.561Z,13.40
2019-01-12T12:15:25.812Z,15.63
2019-01-12T12:17:55.111Z,13.83
2019-01-12T12:20:28.444Z,14.10
2019-01-12T12:22:57.929Z,13.73
2019-01-12T12:25:27.342Z,14.40
2019-01-12T12:27:56.609Z,13.73
2019-01-12T12:30:32.205Z,14.60
2019-01-12T12:33:01.456Z,14.53
2019-01-12T12:35:37.471Z,12.83
2019-01-12T12:38:01.724Z,15.23
2019-01-12T12:40:30.994Z,17.20
2019-01-12T12:43:00.243Z,16.30
2019-01-12T12:45:34.112Z,14.10
2019-01-12T12:48:03.776Z,14.93
2019-01-12T12:50:33.672Z,17.70
2019-01-12T12:53:02.929Z,16.17
2019-01-12T12:55:32.184Z,15.77
2019-01-12T12:58:01.468Z,15.27
2019-01-12T13:00:32.359Z,16.77
2019-01-12T13:03:01.669Z,15.63
2019-01-12T13:05:30.929Z,16.07
2019-01-12T13:08:00.276Z,17.63
2019-01-12T13:10:33.324Z,16.93
2019-01-12T13:13:02.624Z,16.40
2019-01-12T13:15:31.877Z,18.37
2019-01-12T13:18:01.552Z,15.67
2019-01-12T13:20:30.816Z,18.10
2019-01-12T13:23:00.113Z,18.17
2019-01-12T13:25:29.651Z,17.87
2019-01-12T13:27:59.001Z,17.43
2019-01-12T13:30:28.870Z,17.63
2019-01-12T13:32:58.168Z,16.63
2019-01-12T13:35:27.450Z,14.80
2019-01-12T13:37:57.049Z,16.50
2019-01-12T13:40:27.895Z,15.67
2019-01-12T13:42:57.179Z,13.67
2019-01-12T13:45:26.746Z,16.17
2019-01-12T13:47:56.200Z,14.20
2019-01-12T13:50:27.361Z,14.67
2019-01-12T13:52:56.703Z,13.80
2019-01-12T13:55:26.055Z,13.37
2019-01-12T13:57:55.337Z,12.17
2019-01-12T14:00:33.275Z,12.17
2019-01-12T14:03:02.668Z,10.97
2019-01-12T14:05:32.103Z,11.43
2019-01-12T14:08:01.688Z,11.03
2019-01-12T14:10:31.081Z,10.93
2019-01-12T14:13:00.355Z,9.00
2019-01-12T14:15:29.645Z,7.80
2019-01-12T14:17:58.965Z,7.60
2019-01-12T14:20:30.718Z,7.63
2019-01-12T14:22:59.976Z,6.60
2019-01-12T14:25:29.266Z,7.30
2019-01-12T14:27:58.542Z,8.13
2019-01-12T14:30:27.800Z,6.00
2019-01-12T14:32:57.093Z,5.60
2019-01-12T14:35:26.365Z,5.87
2019-01-12T14:37:55.653Z,5.10
2019-01-12T14:40:24.918Z,5.10
2019-01-12T14:42:54.188Z,5.47
2019-01-12T14:45:26.228Z,4.90
2019-01-12T14:47:55.601Z,4.07
2019-01-12T14:50:24.955Z,4.73
2019-01-12T14:52:54.421Z,4.60
2019-01-12T14:55:24.097Z,4.10
2019-01-12T14:57:53.421Z,4.00
2019-01-12T15:00:24.706Z,3.77
2019-01-12T15:02:54.039Z,3.70
2019-01-12T15:05:25.435Z,3.70
2019-01-12T15:07:54.764Z,4.00
2019-01-12T15:10:24.042Z,4.00
2019-01-12T15:12:53.353Z,3.50
2019-01-12T15:15:22.623Z,4.30
2019-01-12T15:17:51.910Z,4.00
2019-01-12T15:20:26.670Z,3.33
2019-01-12T15:22:55.934Z,3.90
2019-01-12T15:25:25.280Z,3.43
2019-01-12T15:27:54.584Z,5.00
2019-01-12T15:30:28.445Z,3.97
2019-01-12T15:32:57.851Z,3.90
2019-01-12T15:35:29.733Z,3.80
2019-01-12T15:37:58.991Z,3.67
2019-01-12T15:40:28.253Z,3.93
2019-01-12T15:42:57.510Z,6.40
2019-01-12T15:45:26.890Z,9.30
2019-01-12T15:47:56.148Z,3.73
2019-01-12T15:50:26.931Z,4.80
2019-01-12T15:52:56.323Z,4.17
2019-01-12T15:55:26.002Z,4.27
2019-01-12T15:57:55.300Z,4.20
2019-01-12T16:00:28.990Z,4.10
2019-01-12T16:02:58.619Z,4.73
2019-01-12T16:05:29.078Z,5.73
2019-01-12T16:07:58.357Z,4.07
2019-01-12T16:10:27.628Z,5.13
2019-01-12T16:12:57.091Z,3.60
2019-01-12T16:15:27.804Z,4.23
2019-01-12T16:17:57.886Z,5.20
2019-01-12T16:20:45.216Z,5.10
2019-01-12T16:23:17.473Z,5.00
2019-01-12T16:25:46.731Z,6.40
2019-01-12T16:28:22.915Z,6.40
2019-01-12T16:30:47.046Z,6.33
2019-01-12T16:33:16.347Z,6.63
2019-01-12T16:35:45.609Z,6.17
2019-01-12T16:38:14.908Z,6.73
2019-01-12T16:40:44.156Z,7.03
2019-01-12T16:43:13.420Z,6.90
2019-01-12T16:45:42.728Z,6.97
2019-01-12T16:48:12.017Z,6.30
2019-01-12T16:50:41.288Z,6.80
2019-01-12T16:53:10.600Z,7.27
2019-01-12T16:55:40.051Z,6.80
2019-01-12T16:58:09.349Z,6.97
2019-01-12T17:00:38.619Z,7.40
2019-01-12T17:03:07.894Z,6.77
2019-01-12T17:05:37.176Z,6.13
2019-01-12T17:08:06.437Z,6.90
2019-01-12T17:10:35.705Z,7.07
2019-01-12T17:13:05.067Z,8.00
2019-01-12T17:15:34.742Z,7.57
2019-01-12T17:18:04.482Z,8.50
2019-01-12T17:20:33.738Z,8.03
2019-01-12T17:23:04.780Z,9.03
2019-01-12T17:25:34.581Z,9.60
2019-01-12T17:28:03.847Z,9.00
2019-01-12T17:30:33.132Z,10.47
2019-01-12T17:33:02.408Z,9.53
2019-01-12T17:35:31.686Z,10.73
2019-01-12T17:38:01.292Z,9.93
2019-01-12T17:40:30.611Z,10.70
2019-01-12T17:42:59.919Z,12.17
2019-01-12T17:45:29.184Z,11.70
2019-01-12T17:47:58.473Z,11.87
2019-01-12T17:50:28.590Z,11.03
2019-01-12T17:52:57.873Z,10.53
2019-01-12T17:55:28.424Z,11.63
2019-01-12T17:57:57.785Z,10.33
2019-01-12T18:00:49.650Z,11.47
2019-01-12T18:03:18.927Z,11.60
2019-01-12T18:05:48.188Z,13.07
2019-01-12T18:08:17.473Z,12.03
2019-01-12T18:10:46.736Z,11.57
2019-01-12T18:13:16.220Z,11.27
2019-01-12T18:15:45.547Z,11.03
2019-01-12T18:18:14.805Z,11.80
2019-01-12T18:20:44.088Z,11.97
2019-01-12T18:23:13.366Z,11.73
2019-01-12T18:25:42.726Z,9.20
2019-01-12T18:28:12.000Z,10.83
2019-01-12T18:30:41.455Z,10.27
2019-01-12T18:33:10.812Z,10.20
2019-01-12T18:35:40.094Z,10.57
2019-01-12T18:38:09.360Z,10.83
2019-01-12T18:40:38.641Z,9.10
2019-01-12T18:43:07.900Z,7.40
2019-01-12T18:45:37.184Z,7.07
2019-01-12T18:48:06.905Z,7.13
2019-01-12T18:50:36.218Z,7.40
2019-01-12T18:53:05.507Z,7.10
2019-01-12T18:55:34.881Z,8.47
2019-01-12T18:58:04.143Z,6.77
2019-01-12T19:00:33.470Z,6.57
2019-01-12T19:03:02.837Z,7.40
2019-01-12T19:05:32.119Z,7.77
2019-01-12T19:08:01.389Z,7.30
2019-01-12T19:10:30.672Z,8.50
2019-01-12T19:13:00.032Z,9.00
2019-01-12T19:15:31.396Z,8.60
2019-01-12T19:18:00.661Z,7.70
2019-01-12T19:20:29.940Z,8.20
2019-01-12T19:22:59.201Z,8.17
2019-01-12T19:25:28.463Z,8.17
2019-01-12T19:27:57.745Z,7.60
2019-01-12T19:30:27.017Z,6.27
2019-01-12T19:32:56.373Z,5.50
2019-01-12T19:35:25.632Z,4.93
2019-01-12T19:37:54.914Z,6.13
2019-01-12T19:40:25.681Z,5.00
2019-01-12T19:42:54.980Z,5.13
2019-01-12T19:45:24.223Z,5.97
2019-01-12T19:47:53.684Z,7.90
2019-01-12T19:50:25.328Z,9.10
2019-01-12T19:52:55.109Z,9.53
2019-01-12T19:55:24.456Z,9.17
2019-01-12T19:57:53.760Z,8.67
2019-01-12T20:00:28.529Z,10.70
2019-01-12T20:02:57.816Z,8.93
2019-01-12T20:05:27.095Z,10.80
2019-01-12T20:07:56.360Z,8.63
2019-01-12T20:10:25.661Z,7.97
2019-01-12T20:12:55.070Z,9.53
2019-01-12T20:15:25.623Z,11.50
2019-01-12T20:17:55.122Z,10.30
2019-01-12T20:20:24.439Z,10.80
2019-01-12T20:22:53.958Z,10.93
2019-01-12T20:25:31.141Z,7.83
2019-01-12T20:28:12.304Z,6.47
2019-01-12T20:31:25.919Z,6.90
2019-01-12T20:34:09.696Z,6.17
2019-01-12T20:37:06.025Z,5.13
2019-01-12T20:40:26.069Z,5.27
2019-01-12T20:43:44.729Z,7.00
2019-01-12T20:46:34.642Z,14.13
2019-01-12T20:49:31.509Z,6.77
2019-01-12T20:52:42.508Z,8.57
2019-01-12T20:55:46.303Z,9.43
2019-01-12T20:58:55.801Z,8.50
2019-01-12T21:02:05.624Z,9.60
2019-01-12T21:05:13.339Z,10.80
2019-01-12T21:08:12.569Z,10.83
2019-01-12T21:11:18.325Z,12.97
2019-01-12T21:14:43.840Z,12.70
2019-01-12T21:17:15.492Z,10.50
2019-01-12T21:19:48.460Z,12.33
2019-01-12T21:22:15.963Z,10.77
2019-01-12T21:24:45.407Z,9.90
2019-01-12T21:27:14.857Z,10.53
2019-01-12T21:29:44.116Z,7.83
2019-01-12T21:32:13.475Z,8.13
2019-01-12T21:34:42.816Z,6.93
2019-01-12T21:37:12.170Z,7.63
2019-01-12T21:39:41.487Z,7.33
2019-01-12T21:42:10.819Z,8.00
2019-01-12T21:44:40.128Z,8.47
2019-01-12T21:47:09.451Z,8.97
2019-01-12T21:49:38.807Z,8.37
2019-01-12T21:52:08.133Z,8.90
2019-01-12T21:54:37.456Z,9.87
2019-01-12T21:57:06.825Z,10.40
2019-01-12T21:59:42.256Z,9.40
2019-01-12T22:02:07.261Z,12.50
2019-01-12T22:04:36.800Z,10.03
2019-01-12T22:07:06.158Z,11.83
2019-01-12T22:09:35.564Z,12.57
2019-01-12T22:12:05.974Z,11.97
2019-01-12T22:14:35.432Z,11.60
2019-01-12T22:17:04.781Z,12.83
2019-01-12T22:19:34.112Z,12.60
2019-01-12T22:22:03.503Z,12.60
2019-01-12T22:24:32.863Z,12.13
2019-01-12T22:27:03.106Z,13.10
2019-01-12T22:29:32.395Z,12.20
2019-01-12T22:32:01.690Z,14.13
2019-01-12T22:34:30.995Z,11.80
2019-01-12T22:37:00.269Z,12.57
2019-01-12T22:39:29.569Z,12.53
2019-01-12T22:41:58.920Z,13.00
2019-01-12T22:44:28.199Z,13.47
2019-01-12T22:46:57.472Z,13.30
2019-01-12T22:49:26.805Z,12.10
2019-01-12T22:51:56.105Z,12.57
2019-01-12T22:54:25.434Z,11.70
2019-01-12T22:56:54.794Z,13.10
2019-01-12T22:59:24.052Z,10.63
2019-01-12T23:01:59.929Z,12.80
2019-01-12T23:04:30.121Z,15.90
2019-01-12T23:07:01.092Z,13.67
2019-01-12T23:09:31.466Z,13.90
2019-01-12T23:12:00.835Z,15.13
2019-01-12T23:14:30.217Z,15.60
2019-01-12T23:16:59.574Z,15.23
2019-01-12T23:19:28.907Z,15.20
2019-01-12T23:21:59.726Z,15.80
2019-01-12T23:24:29.016Z,17.50
2019-01-12T23:26:58.312Z,17.17
2019-01-12T23:29:27.591Z,15.37
2019-01-12T23:31:56.961Z,15.47
2019-01-12T23:34:26.271Z,16.10
2019-01-12T23:36:55.624Z,14.20
2019-01-12T23:39:24.977Z,16.33
2019-01-12T23:41:54.280Z,15.77
2019-01-12T23:44:23.552Z,17.13
2019-01-12T23:46:52.864Z,15.60
2019-01-12T23:49:22.189Z,16.33
2019-01-12T23:51:51.489Z,17.47
2019-01-12T23:54:20.788Z,16.30
2019-01-12T23:56:50.150Z,16.67
2019-01-12T23:59:19.456Z,15.40
